Capitol Logistics 3254


KMTH
The Florida Keys Marathon International Airport
Marathon, Florida, US
KEYW
Key West International Airport
Key West, Florida, US

Activity Log

Date Flight Route Aircraft Duration
07/05/2020 CPX3254 JANKA SF34 0h 33m
10/23/2019 CPX654 JANKA SF34 0h 31m
06/16/2019 CPX654 JANKA SF34 0h 25m
06/05/2019 CPX654 DVALL CURSO5 SF34 0h 38m
04/30/2019 CPX654 NQX SF34 0h 17m
04/13/2019 CPX654 JANKA SF34 0h 18m
04/02/2019 CPX654 JANKA SF34 0h 21m
03/21/2019 CPX654 JANKA SF34 0h 25m
03/06/2019 CPX654 JANKA SF34 0h 25m

Route Details

Aircraft Information
Primary: Saab 340AF
Backup: Not Available
Route Data
Distance: 40nm
Sched. Duration: 0h 45m
Avg. Duration: 0h 25m (-19m)
Times Flown: 9
Recm'd Route: JANKA
Planned Altitude: 2,500ft
Origin Wx: KMTH 281953Z AUTO 11009G15KT 10SM CLR 29/25 A2994 RMK AO2 SLP139 T02940250
Dest. Wx: KEYW 281953Z 11013KT 10SM FEW020 29/24 A2994 RMK AO2 SLP138 T02940244
Notes:

Financial History
Total Freight: 48,535lbs
Average Load: 5,393lbs/flt
Fuel Used: 3,017lbs
Avg. Fuel Used: 335lbs/flt
Fuel Expense: $2,745
Avg. Fuel Expense: $305
Avg. Fuel Cost: $0.91/lbs
Total Gross Income: $54,958
Pilot Pay: $1,581
Total Expenses: $6,403
Total Revenue: $45,008
Average Revenue: $6,106.40